sensor_id;sensor_type;location;lat;lon;timestamp;P1;durP1;ratioP1;P2;durP2;ratioP2
1935;SDS011;969;49.892;10.896;2023-12-07T00:01:10;2.90;;;2.27;;
1935;SDS011;969;49.892;10.896;2023-12-07T00:03:35;3.00;;;2.53;;
1935;SDS011;969;49.892;10.896;2023-12-07T00:06:01;3.10;;;2.70;;
1935;SDS011;969;49.892;10.896;2023-12-07T00:08:27;2.80;;;2.40;;
1935;SDS011;969;49.892;10.896;2023-12-07T00:10:55;2.77;;;2.40;;
1935;SDS011;969;49.892;10.896;2023-12-07T00:13:21;3.27;;;2.63;;
1935;SDS011;969;49.892;10.896;2023-12-07T00:15:46;3.13;;;2.50;;
1935;SDS011;969;49.892;10.896;2023-12-07T00:18:12;2.57;;;2.37;;
1935;SDS011;969;49.892;10.896;2023-12-07T00:20:38;2.60;;;2.40;;
1935;SDS011;969;49.892;10.896;2023-12-07T00:23:04;2.87;;;2.57;;
1935;SDS011;969;49.892;10.896;2023-12-07T00:25:29;2.60;;;2.40;;
1935;SDS011;969;49.892;10.896;2023-12-07T00:27:55;2.70;;;2.50;;
1935;SDS011;969;49.892;10.896;2023-12-07T00:30:20;2.43;;;2.23;;
1935;SDS011;969;49.892;10.896;2023-12-07T00:32:46;2.97;;;2.60;;
1935;SDS011;969;49.892;10.896;2023-12-07T00:35:12;2.77;;;2.37;;
1935;SDS011;969;49.892;10.896;2023-12-07T00:37:39;2.93;;;2.33;;
1935;SDS011;969;49.892;10.896;2023-12-07T00:40:05;2.63;;;2.37;;
1935;SDS011;969;49.892;10.896;2023-12-07T00:42:32;2.97;;;2.43;;
1935;SDS011;969;49.892;10.896;2023-12-07T00:44:59;3.23;;;2.70;;
1935;SDS011;969;49.892;10.896;2023-12-07T00:47:25;2.53;;;2.33;;
1935;SDS011;969;49.892;10.896;2023-12-07T00:49:50;2.40;;;2.20;;
1935;SDS011;969;49.892;10.896;2023-12-07T00:52:16;2.80;;;2.50;;
1935;SDS011;969;49.892;10.896;2023-12-07T00:54:41;3.47;;;3.17;;
1935;SDS011;969;49.892;10.896;2023-12-07T00:57:07;3.07;;;2.80;;
1935;SDS011;969;49.892;10.896;2023-12-07T00:59:33;3.70;;;2.70;;
1935;SDS011;969;49.892;10.896;2023-12-07T01:02:05;2.40;;;2.10;;
1935;SDS011;969;49.892;10.896;2023-12-07T01:04:31;2.90;;;2.23;;
1935;SDS011;969;49.892;10.896;2023-12-07T01:06:58;2.50;;;2.07;;
1935;SDS011;969;49.892;10.896;2023-12-07T01:09:24;3.30;;;2.50;;
1935;SDS011;969;49.892;10.896;2023-12-07T01:11:50;2.90;;;2.60;;
1935;SDS011;969;49.892;10.896;2023-12-07T01:14:16;2.47;;;2.27;;
1935;SDS011;969;49.892;10.896;2023-12-07T01:16:42;2.50;;;2.30;;
1935;SDS011;969;49.892;10.896;2023-12-07T01:19:08;2.10;;;1.90;;
1935;SDS011;969;49.892;10.896;2023-12-07T01:21:34;2.50;;;2.30;;
1935;SDS011;969;49.892;10.896;2023-12-07T01:24:00;3.20;;;2.50;;
1935;SDS011;969;49.892;10.896;2023-12-07T01:26:25;3.10;;;2.17;;
1935;SDS011;969;49.892;10.896;2023-12-07T01:28:52;2.20;;;2.00;;
1935;SDS011;969;49.892;10.896;2023-12-07T01:31:18;2.63;;;2.43;;
1935;SDS011;969;49.892;10.896;2023-12-07T01:33:44;2.50;;;2.00;;
1935;SDS011;969;49.892;10.896;2023-12-07T01:36:10;3.23;;;2.93;;
1935;SDS011;969;49.892;10.896;2023-12-07T01:38:36;3.80;;;2.00;;
1935;SDS011;969;49.892;10.896;2023-12-07T01:41:02;2.50;;;2.03;;
1935;SDS011;969;49.892;10.896;2023-12-07T01:43:28;3.10;;;2.37;;
1935;SDS011;969;49.892;10.896;2023-12-07T01:45:54;2.27;;;2.10;;
1935;SDS011;969;49.892;10.896;2023-12-07T01:48:22;3.50;;;2.70;;
1935;SDS011;969;49.892;10.896;2023-12-07T01:50:49;2.47;;;2.20;;
1935;SDS011;969;49.892;10.896;2023-12-07T01:53:16;2.87;;;2.10;;
1935;SDS011;969;49.892;10.896;2023-12-07T01:55:43;2.97;;;2.10;;
1935;SDS011;969;49.892;10.896;2023-12-07T01:58:08;2.30;;;2.00;;
1935;SDS011;969;49.892;10.896;2023-12-07T02:00:35;2.83;;;2.60;;
1935;SDS011;969;49.892;10.896;2023-12-07T02:03:02;2.43;;;2.23;;
1935;SDS011;969;49.892;10.896;2023-12-07T02:05:29;2.13;;;1.93;;
1935;SDS011;969;49.892;10.896;2023-12-07T02:07:57;2.20;;;2.00;;
1935;SDS011;969;49.892;10.896;2023-12-07T02:10:23;2.57;;;2.30;;
1935;SDS011;969;49.892;10.896;2023-12-07T02:12:49;2.20;;;2.00;;
1935;SDS011;969;49.892;10.896;2023-12-07T02:15:15;2.40;;;2.20;;
1935;SDS011;969;49.892;10.896;2023-12-07T02:17:44;2.30;;;2.10;;
1935;SDS011;969;49.892;10.896;2023-12-07T02:20:46;2.33;;;2.13;;
1935;SDS011;969;49.892;10.896;2023-12-07T02:23:40;2.33;;;1.87;;
1935;SDS011;969;49.892;10.896;2023-12-07T02:26:07;2.63;;;2.43;;
1935;SDS011;969;49.892;10.896;2023-12-07T02:28:35;2.10;;;1.90;;
1935;SDS011;969;49.892;10.896;2023-12-07T02:31:01;2.20;;;1.87;;
1935;SDS011;969;49.892;10.896;2023-12-07T02:33:26;2.40;;;2.10;;
1935;SDS011;969;49.892;10.896;2023-12-07T02:35:52;2.00;;;1.77;;
1935;SDS011;969;49.892;10.896;2023-12-07T02:38:17;3.00;;;2.03;;
1935;SDS011;969;49.892;10.896;2023-12-07T02:40:45;3.30;;;2.23;;
1935;SDS011;969;49.892;10.896;2023-12-07T02:43:12;3.70;;;2.30;;
1935;SDS011;969;49.892;10.896;2023-12-07T02:45:38;3.17;;;2.87;;
1935;SDS011;969;49.892;10.896;2023-12-07T02:48:04;2.20;;;2.00;;
1935;SDS011;969;49.892;10.896;2023-12-07T02:50:29;2.40;;;2.20;;
1935;SDS011;969;49.892;10.896;2023-12-07T02:52:55;2.50;;;2.10;;
1935;SDS011;969;49.892;10.896;2023-12-07T02:55:21;2.30;;;2.10;;
1935;SDS011;969;49.892;10.896;2023-12-07T02:57:47;2.17;;;1.97;;
1935;SDS011;969;49.892;10.896;2023-12-07T03:00:13;2.57;;;2.37;;
1935;SDS011;969;49.892;10.896;2023-12-07T03:02:39;2.30;;;1.97;;
1935;SDS011;969;49.892;10.896;2023-12-07T03:05:06;2.50;;;2.03;;
1935;SDS011;969;49.892;10.896;2023-12-07T03:07:35;1.83;;;1.67;;
1935;SDS011;969;49.892;10.896;2023-12-07T03:10:01;2.23;;;2.00;;
1935;SDS011;969;49.892;10.896;2023-12-07T03:12:27;2.67;;;2.43;;
1935;SDS011;969;49.892;10.896;2023-12-07T03:14:53;2.37;;;2.10;;
1935;SDS011;969;49.892;10.896;2023-12-07T03:17:19;2.07;;;1.83;;
1935;SDS011;969;49.892;10.896;2023-12-07T03:19:44;2.93;;;2.10;;
1935;SDS011;969;49.892;10.896;2023-12-07T03:22:10;2.80;;;2.30;;
1935;SDS011;969;49.892;10.896;2023-12-07T03:24:38;2.40;;;1.80;;
1935;SDS011;969;49.892;10.896;2023-12-07T03:27:04;2.07;;;1.87;;
1935;SDS011;969;49.892;10.896;2023-12-07T03:29:30;2.63;;;2.13;;
1935;SDS011;969;49.892;10.896;2023-12-07T03:31:57;3.13;;;2.30;;
1935;SDS011;969;49.892;10.896;2023-12-07T03:34:23;2.03;;;1.80;;
1935;SDS011;969;49.892;10.896;2023-12-07T03:36:49;1.63;;;1.53;;
1935;SDS011;969;49.892;10.896;2023-12-07T03:39:15;1.70;;;1.60;;
1935;SDS011;969;49.892;10.896;2023-12-07T03:41:43;2.13;;;1.80;;
1935;SDS011;969;49.892;10.896;2023-12-07T03:44:09;1.70;;;1.50;;
1935;SDS011;969;49.892;10.896;2023-12-07T03:46:35;2.10;;;1.90;;
1935;SDS011;969;49.892;10.896;2023-12-07T03:49:00;2.27;;;2.00;;
1935;SDS011;969;49.892;10.896;2023-12-07T03:51:26;2.60;;;2.40;;
1935;SDS011;969;49.892;10.896;2023-12-07T03:53:52;2.20;;;2.00;;
1935;SDS011;969;49.892;10.896;2023-12-07T03:56:26;2.40;;;2.13;;
1935;SDS011;969;49.892;10.896;2023-12-07T03:58:55;2.63;;;2.10;;
1935;SDS011;969;49.892;10.896;2023-12-07T04:01:25;2.40;;;1.90;;
1935;SDS011;969;49.892;10.896;2023-12-07T04:03:51;1.80;;;1.63;;
1935;SDS011;969;49.892;10.896;2023-12-07T04:06:17;2.10;;;1.90;;
1935;SDS011;969;49.892;10.896;2023-12-07T04:08:43;2.50;;;2.10;;
1935;SDS011;969;49.892;10.896;2023-12-07T04:11:09;2.70;;;1.87;;
1935;SDS011;969;49.892;10.896;2023-12-07T04:13:35;2.40;;;2.10;;
1935;SDS011;969;49.892;10.896;2023-12-07T04:16:01;2.13;;;1.93;;
1935;SDS011;969;49.892;10.896;2023-12-07T04:18:28;2.37;;;2.07;;
1935;SDS011;969;49.892;10.896;2023-12-07T04:20:53;2.03;;;1.80;;
1935;SDS011;969;49.892;10.896;2023-12-07T04:23:19;1.80;;;1.50;;
1935;SDS011;969;49.892;10.896;2023-12-07T04:25:45;1.60;;;1.50;;
1935;SDS011;969;49.892;10.896;2023-12-07T04:28:10;3.87;;;2.10;;
1935;SDS011;969;49.892;10.896;2023-12-07T04:30:36;2.23;;;2.00;;
1935;SDS011;969;49.892;10.896;2023-12-07T04:33:02;2.00;;;1.80;;
1935;SDS011;969;49.892;10.896;2023-12-07T04:35:28;2.20;;;1.70;;
1935;SDS011;969;49.892;10.896;2023-12-07T04:37:54;2.40;;;1.73;;
1935;SDS011;969;49.892;10.896;2023-12-07T04:40:19;1.70;;;1.60;;
1935;SDS011;969;49.892;10.896;2023-12-07T04:42:45;1.70;;;1.60;;
1935;SDS011;969;49.892;10.896;2023-12-07T04:45:11;1.70;;;1.60;;
1935;SDS011;969;49.892;10.896;2023-12-07T04:47:37;1.97;;;1.87;;
1935;SDS011;969;49.892;10.896;2023-12-07T04:50:02;3.67;;;1.57;;
1935;SDS011;969;49.892;10.896;2023-12-07T04:52:28;1.93;;;1.77;;
1935;SDS011;969;49.892;10.896;2023-12-07T04:54:54;2.00;;;1.80;;
1935;SDS011;969;49.892;10.896;2023-12-07T04:57:19;2.07;;;1.70;;
1935;SDS011;969;49.892;10.896;2023-12-07T04:59:45;2.00;;;1.90;;
1935;SDS011;969;49.892;10.896;2023-12-07T05:02:13;2.13;;;1.93;;
1935;SDS011;969;49.892;10.896;2023-12-07T05:04:39;2.20;;;1.70;;
1935;SDS011;969;49.892;10.896;2023-12-07T05:07:05;2.00;;;1.53;;
1935;SDS011;969;49.892;10.896;2023-12-07T05:09:31;2.63;;;2.43;;
1935;SDS011;969;49.892;10.896;2023-12-07T05:11:56;2.00;;;1.80;;
1935;SDS011;969;49.892;10.896;2023-12-07T05:14:23;2.67;;;1.93;;
1935;SDS011;969;49.892;10.896;2023-12-07T05:16:48;2.37;;;1.90;;
1935;SDS011;969;49.892;10.896;2023-12-07T05:19:18;2.27;;;2.07;;
1935;SDS011;969;49.892;10.896;2023-12-07T05:21:45;1.97;;;1.70;;
1935;SDS011;969;49.892;10.896;2023-12-07T05:24:12;1.80;;;1.70;;
1935;SDS011;969;49.892;10.896;2023-12-07T05:26:37;1.50;;;1.40;;
1935;SDS011;969;49.892;10.896;2023-12-07T05:29:03;2.30;;;2.10;;
1935;SDS011;969;49.892;10.896;2023-12-07T05:31:29;1.50;;;1.30;;
1935;SDS011;969;49.892;10.896;2023-12-07T05:33:55;2.03;;;1.77;;
1935;SDS011;969;49.892;10.896;2023-12-07T05:36:20;1.80;;;1.70;;
1935;SDS011;969;49.892;10.896;2023-12-07T05:38:46;2.33;;;1.80;;
1935;SDS011;969;49.892;10.896;2023-12-07T05:41:12;1.60;;;1.50;;
1935;SDS011;969;49.892;10.896;2023-12-07T05:43:40;2.03;;;1.60;;
1935;SDS011;969;49.892;10.896;2023-12-07T05:46:06;2.57;;;2.10;;
1935;SDS011;969;49.892;10.896;2023-12-07T05:48:32;1.67;;;1.57;;
1935;SDS011;969;49.892;10.896;2023-12-07T05:50:58;1.77;;;1.67;;
1935;SDS011;969;49.892;10.896;2023-12-07T05:53:23;2.27;;;1.63;;
1935;SDS011;969;49.892;10.896;2023-12-07T05:55:49;2.00;;;1.80;;
1935;SDS011;969;49.892;10.896;2023-12-07T05:58:15;2.80;;;1.87;;
1935;SDS011;969;49.892;10.896;2023-12-07T06:00:43;2.67;;;1.57;;
1935;SDS011;969;49.892;10.896;2023-12-07T06:03:11;2.20;;;2.00;;
1935;SDS011;969;49.892;10.896;2023-12-07T06:05:38;2.50;;;2.03;;
1935;SDS011;969;49.892;10.896;2023-12-07T06:08:04;2.33;;;2.03;;
1935;SDS011;969;49.892;10.896;2023-12-07T06:10:30;1.77;;;1.67;;
1935;SDS011;969;49.892;10.896;2023-12-07T06:12:55;3.10;;;2.37;;
1935;SDS011;969;49.892;10.896;2023-12-07T06:15:23;2.10;;;1.90;;
1935;SDS011;969;49.892;10.896;2023-12-07T06:17:49;2.40;;;1.93;;
1935;SDS011;969;49.892;10.896;2023-12-07T06:20:14;1.70;;;1.60;;
1935;SDS011;969;49.892;10.896;2023-12-07T06:22:40;1.87;;;1.77;;
1935;SDS011;969;49.892;10.896;2023-12-07T06:25:06;1.70;;;1.60;;
1935;SDS011;969;49.892;10.896;2023-12-07T06:27:33;2.70;;;2.13;;
1935;SDS011;969;49.892;10.896;2023-12-07T06:30:00;1.93;;;1.73;;
1935;SDS011;969;49.892;10.896;2023-12-07T06:32:26;1.80;;;1.70;;
1935;SDS011;969;49.892;10.896;2023-12-07T06:34:51;2.00;;;1.80;;
1935;SDS011;969;49.892;10.896;2023-12-07T06:37:17;2.07;;;1.70;;
1935;SDS011;969;49.892;10.896;2023-12-07T06:39:42;2.10;;;1.80;;
1935;SDS011;969;49.892;10.896;2023-12-07T06:42:08;2.20;;;2.00;;
1935;SDS011;969;49.892;10.896;2023-12-07T06:44:34;2.10;;;1.90;;
1935;SDS011;969;49.892;10.896;2023-12-07T06:47:00;2.23;;;2.03;;
1935;SDS011;969;49.892;10.896;2023-12-07T06:49:28;2.30;;;2.10;;
1935;SDS011;969;49.892;10.896;2023-12-07T06:51:54;2.17;;;1.97;;
1935;SDS011;969;49.892;10.896;2023-12-07T06:54:19;2.60;;;2.40;;
1935;SDS011;969;49.892;10.896;2023-12-07T06:56:45;2.00;;;1.83;;
1935;SDS011;969;49.892;10.896;2023-12-07T06:59:11;2.67;;;2.47;;
1935;SDS011;969;49.892;10.896;2023-12-07T07:01:36;3.40;;;3.00;;
1935;SDS011;969;49.892;10.896;2023-12-07T07:04:03;5.70;;;3.47;;
1935;SDS011;969;49.892;10.896;2023-12-07T07:06:28;5.13;;;3.37;;
1935;SDS011;969;49.892;10.896;2023-12-07T07:08:54;4.40;;;3.50;;
1935;SDS011;969;49.892;10.896;2023-12-07T07:11:20;4.53;;;3.60;;
1935;SDS011;969;49.892;10.896;2023-12-07T07:13:45;3.90;;;3.20;;
1935;SDS011;969;49.892;10.896;2023-12-07T07:16:11;4.47;;;3.60;;
1935;SDS011;969;49.892;10.896;2023-12-07T07:18:37;3.27;;;2.97;;
1935;SDS011;969;49.892;10.896;2023-12-07T07:21:03;3.83;;;3.50;;
1935;SDS011;969;49.892;10.896;2023-12-07T07:23:29;4.40;;;3.90;;
1935;SDS011;969;49.892;10.896;2023-12-07T07:25:55;4.83;;;3.60;;
1935;SDS011;969;49.892;10.896;2023-12-07T07:28:20;6.57;;;3.90;;
1935;SDS011;969;49.892;10.896;2023-12-07T07:30:46;4.77;;;3.70;;
1935;SDS011;969;49.892;10.896;2023-12-07T07:33:12;7.00;;;3.80;;
1935;SDS011;969;49.892;10.896;2023-12-07T07:35:37;4.40;;;3.40;;
1935;SDS011;969;49.892;10.896;2023-12-07T07:38:03;4.10;;;3.30;;
1935;SDS011;969;49.892;10.896;2023-12-07T07:40:28;5.47;;;4.07;;
1935;SDS011;969;49.892;10.896;2023-12-07T07:42:54;4.60;;;3.87;;
1935;SDS011;969;49.892;10.896;2023-12-07T07:45:20;4.67;;;3.40;;
1935;SDS011;969;49.892;10.896;2023-12-07T07:47:45;4.60;;;3.50;;
1935;SDS011;969;49.892;10.896;2023-12-07T07:50:11;5.50;;;4.57;;
1935;SDS011;969;49.892;10.896;2023-12-07T07:52:36;4.57;;;4.00;;
1935;SDS011;969;49.892;10.896;2023-12-07T07:55:05;6.07;;;4.50;;
1935;SDS011;969;49.892;10.896;2023-12-07T07:57:32;3.87;;;3.47;;
1935;SDS011;969;49.892;10.896;2023-12-07T07:59:57;6.70;;;4.07;;
1935;SDS011;969;49.892;10.896;2023-12-07T08:02:23;5.67;;;4.40;;
1935;SDS011;969;49.892;10.896;2023-12-07T08:04:49;4.30;;;3.60;;
1935;SDS011;969;49.892;10.896;2023-12-07T08:07:16;4.50;;;3.80;;
1935;SDS011;969;49.892;10.896;2023-12-07T08:09:42;5.23;;;4.20;;
1935;SDS011;969;49.892;10.896;2023-12-07T08:12:08;4.13;;;3.13;;
1935;SDS011;969;49.892;10.896;2023-12-07T08:14:36;5.90;;;3.73;;
1935;SDS011;969;49.892;10.896;2023-12-07T08:17:03;5.90;;;4.00;;
1935;SDS011;969;49.892;10.896;2023-12-07T08:19:29;5.03;;;3.30;;
1935;SDS011;969;49.892;10.896;2023-12-07T08:21:54;5.27;;;3.23;;
1935;SDS011;969;49.892;10.896;2023-12-07T08:24:20;3.53;;;3.23;;
1935;SDS011;969;49.892;10.896;2023-12-07T08:26:46;5.37;;;3.57;;
1935;SDS011;969;49.892;10.896;2023-12-07T08:29:11;5.03;;;3.70;;
1935;SDS011;969;49.892;10.896;2023-12-07T08:31:37;3.27;;;2.97;;
1935;SDS011;969;49.892;10.896;2023-12-07T08:34:05;5.40;;;3.90;;
1935;SDS011;969;49.892;10.896;2023-12-07T08:36:30;4.67;;;3.57;;
1935;SDS011;969;49.892;10.896;2023-12-07T08:38:56;5.00;;;4.00;;
1935;SDS011;969;49.892;10.896;2023-12-07T08:41:22;4.27;;;3.63;;
1935;SDS011;969;49.892;10.896;2023-12-07T08:43:48;5.10;;;4.10;;
1935;SDS011;969;49.892;10.896;2023-12-07T08:46:14;5.70;;;4.10;;
1935;SDS011;969;49.892;10.896;2023-12-07T08:48:39;6.10;;;4.23;;
1935;SDS011;969;49.892;10.896;2023-12-07T08:51:05;4.30;;;3.80;;
1935;SDS011;969;49.892;10.896;2023-12-07T08:53:33;5.63;;;3.90;;
1935;SDS011;969;49.892;10.896;2023-12-07T08:55:59;3.70;;;3.40;;
1935;SDS011;969;49.892;10.896;2023-12-07T08:58:26;4.23;;;3.87;;
1935;SDS011;969;49.892;10.896;2023-12-07T09:00:52;6.40;;;4.07;;
1935;SDS011;969;49.892;10.896;2023-12-07T09:03:17;4.40;;;4.00;;
1935;SDS011;969;49.892;10.896;2023-12-07T09:05:43;4.10;;;2.93;;
1935;SDS011;969;49.892;10.896;2023-12-07T09:08:08;5.47;;;3.97;;
1935;SDS011;969;49.892;10.896;2023-12-07T09:10:34;4.47;;;3.23;;
1935;SDS011;969;49.892;10.896;2023-12-07T09:13:00;4.83;;;3.97;;
1935;SDS011;969;49.892;10.896;2023-12-07T09:15:26;3.40;;;3.10;;
1935;SDS011;969;49.892;10.896;2023-12-07T09:17:51;5.03;;;3.77;;
1935;SDS011;969;49.892;10.896;2023-12-07T09:20:17;3.20;;;2.90;;
1935;SDS011;969;49.892;10.896;2023-12-07T09:22:43;3.70;;;3.10;;
1935;SDS011;969;49.892;10.896;2023-12-07T09:25:10;4.10;;;3.10;;
1935;SDS011;969;49.892;10.896;2023-12-07T09:27:37;5.20;;;4.43;;
1935;SDS011;969;49.892;10.896;2023-12-07T09:30:06;5.40;;;3.80;;
1935;SDS011;969;49.892;10.896;2023-12-07T09:32:35;3.43;;;3.10;;
1935;SDS011;969;49.892;10.896;2023-12-07T09:35:06;3.27;;;2.80;;
1935;SDS011;969;49.892;10.896;2023-12-07T09:37:33;4.57;;;3.70;;
1935;SDS011;969;49.892;10.896;2023-12-07T09:39:59;4.23;;;3.80;;
1935;SDS011;969;49.892;10.896;2023-12-07T09:42:26;3.77;;;2.90;;
1935;SDS011;969;49.892;10.896;2023-12-07T09:44:52;4.33;;;3.50;;
1935;SDS011;969;49.892;10.896;2023-12-07T09:47:18;4.20;;;3.23;;
1935;SDS011;969;49.892;10.896;2023-12-07T09:49:44;3.83;;;3.47;;
1935;SDS011;969;49.892;10.896;2023-12-07T09:52:10;3.80;;;3.23;;
1935;SDS011;969;49.892;10.896;2023-12-07T09:54:40;4.30;;;3.10;;
1935;SDS011;969;49.892;10.896;2023-12-07T09:57:07;5.53;;;3.27;;
1935;SDS011;969;49.892;10.896;2023-12-07T09:59:34;3.50;;;3.20;;
1935;SDS011;969;49.892;10.896;2023-12-07T10:02:01;4.70;;;3.30;;
1935;SDS011;969;49.892;10.896;2023-12-07T10:04:26;3.67;;;2.77;;
1935;SDS011;969;49.892;10.896;2023-12-07T10:06:52;3.33;;;3.00;;
1935;SDS011;969;49.892;10.896;2023-12-07T10:09:19;3.83;;;3.43;;
1935;SDS011;969;49.892;10.896;2023-12-07T10:11:45;3.27;;;2.97;;
1935;SDS011;969;49.892;10.896;2023-12-07T10:14:12;3.60;;;3.30;;
1935;SDS011;969;49.892;10.896;2023-12-07T10:16:37;5.20;;;3.20;;
1935;SDS011;969;49.892;10.896;2023-12-07T10:19:15;4.47;;;3.70;;
1935;SDS011;969;49.892;10.896;2023-12-07T10:21:44;3.87;;;3.57;;
1935;SDS011;969;49.892;10.896;2023-12-07T10:24:11;2.90;;;2.60;;
1935;SDS011;969;49.892;10.896;2023-12-07T10:26:39;5.00;;;3.30;;
1935;SDS011;969;49.892;10.896;2023-12-07T10:29:05;4.60;;;3.20;;
1935;SDS011;969;49.892;10.896;2023-12-07T10:31:31;2.83;;;2.53;;
1935;SDS011;969;49.892;10.896;2023-12-07T10:34:00;2.70;;;2.50;;
1935;SDS011;969;49.892;10.896;2023-12-07T10:36:26;3.93;;;3.00;;
1935;SDS011;969;49.892;10.896;2023-12-07T10:38:52;3.33;;;3.00;;
1935;SDS011;969;49.892;10.896;2023-12-07T10:41:18;4.83;;;3.57;;
1935;SDS011;969;49.892;10.896;2023-12-07T10:43:48;4.37;;;3.20;;
1935;SDS011;969;49.892;10.896;2023-12-07T10:46:19;3.60;;;3.10;;
1935;SDS011;969;49.892;10.896;2023-12-07T10:48:46;3.30;;;3.00;;
1935;SDS011;969;49.892;10.896;2023-12-07T10:53:51;2.70;;;2.50;;
1935;SDS011;969;49.892;10.896;2023-12-07T10:56:24;4.20;;;3.30;;
1935;SDS011;969;49.892;10.896;2023-12-07T10:59:01;3.47;;;3.10;;
1935;SDS011;969;49.892;10.896;2023-12-07T11:01:27;2.80;;;2.60;;
1935;SDS011;969;49.892;10.896;2023-12-07T11:03:54;4.10;;;2.80;;
1935;SDS011;969;49.892;10.896;2023-12-07T11:06:21;3.70;;;2.80;;
1935;SDS011;969;49.892;10.896;2023-12-07T11:08:49;4.50;;;3.00;;
1935;SDS011;969;49.892;10.896;2023-12-07T11:11:24;3.33;;;3.03;;
1935;SDS011;969;49.892;10.896;2023-12-07T11:13:59;3.53;;;3.23;;
1935;SDS011;969;49.892;10.896;2023-12-07T11:16:37;3.23;;;2.93;;
1935;SDS011;969;49.892;10.896;2023-12-07T11:21:57;3.80;;;3.27;;
1935;SDS011;969;49.892;10.896;2023-12-07T11:24:26;4.10;;;2.70;;
1935;SDS011;969;49.892;10.896;2023-12-07T11:26:52;3.00;;;2.40;;
1935;SDS011;969;49.892;10.896;2023-12-07T11:29:24;3.50;;;2.47;;
1935;SDS011;969;49.892;10.896;2023-12-07T11:31:51;3.77;;;3.37;;
1935;SDS011;969;49.892;10.896;2023-12-07T11:34:57;3.17;;;2.73;;
1935;SDS011;969;49.892;10.896;2023-12-07T11:37:17;2.90;;;2.60;;
1935;SDS011;969;49.892;10.896;2023-12-07T11:39:43;2.90;;;2.60;;
1935;SDS011;969;49.892;10.896;2023-12-07T11:42:12;3.03;;;2.77;;
1935;SDS011;969;49.892;10.896;2023-12-07T11:44:42;3.70;;;2.70;;
1935;SDS011;969;49.892;10.896;2023-12-07T11:47:15;2.40;;;2.20;;
1935;SDS011;969;49.892;10.896;2023-12-07T11:49:45;3.13;;;2.37;;
1935;SDS011;969;49.892;10.896;2023-12-07T11:52:12;3.10;;;2.80;;
1935;SDS011;969;49.892;10.896;2023-12-07T11:54:43;3.70;;;2.93;;
1935;SDS011;969;49.892;10.896;2023-12-07T11:57:10;2.97;;;2.67;;
1935;SDS011;969;49.892;10.896;2023-12-07T11:59:35;4.10;;;2.80;;
1935;SDS011;969;49.892;10.896;2023-12-07T12:02:01;3.00;;;2.47;;
1935;SDS011;969;49.892;10.896;2023-12-07T12:04:27;2.53;;;2.33;;
1935;SDS011;969;49.892;10.896;2023-12-07T12:06:53;3.90;;;2.63;;
1935;SDS011;969;49.892;10.896;2023-12-07T12:09:19;3.10;;;2.70;;
1935;SDS011;969;49.892;10.896;2023-12-07T12:11:45;2.83;;;2.60;;
1935;SDS011;969;49.892;10.896;2023-12-07T12:14:12;3.80;;;2.67;;
1935;SDS011;969;49.892;10.896;2023-12-07T12:16:47;2.73;;;2.20;;
1935;SDS011;969;49.892;10.896;2023-12-07T12:19:13;2.83;;;2.43;;
1935;SDS011;969;49.892;10.896;2023-12-07T12:21:41;2.67;;;2.47;;
1935;SDS011;969;49.892;10.896;2023-12-07T12:24:08;5.40;;;3.97;;
1935;SDS011;969;49.892;10.896;2023-12-07T12:26:34;2.80;;;2.60;;
1935;SDS011;969;49.892;10.896;2023-12-07T12:29:05;3.13;;;2.80;;
1935;SDS011;969;49.892;10.896;2023-12-07T12:31:33;4.20;;;2.80;;
1935;SDS011;969;49.892;10.896;2023-12-07T12:34:02;6.40;;;4.50;;
1935;SDS011;969;49.892;10.896;2023-12-07T12:36:30;13.40;;;8.40;;
1935;SDS011;969;49.892;10.896;2023-12-07T12:38:56;15.53;;;9.20;;
1935;SDS011;969;49.892;10.896;2023-12-07T12:41:22;15.93;;;9.20;;
1935;SDS011;969;49.892;10.896;2023-12-07T12:43:48;19.80;;;12.57;;
1935;SDS011;969;49.892;10.896;2023-12-07T12:46:16;13.00;;;8.30;;
1935;SDS011;969;49.892;10.896;2023-12-07T12:48:52;25.87;;;15.07;;
1935;SDS011;969;49.892;10.896;2023-12-07T12:51:23;15.97;;;8.77;;
1935;SDS011;969;49.892;10.896;2023-12-07T12:53:52;15.43;;;10.17;;
1935;SDS011;969;49.892;10.896;2023-12-07T12:56:19;11.17;;;6.70;;
1935;SDS011;969;49.892;10.896;2023-12-07T12:58:46;13.83;;;6.43;;
1935;SDS011;969;49.892;10.896;2023-12-07T13:01:15;12.10;;;6.83;;
1935;SDS011;969;49.892;10.896;2023-12-07T13:03:42;11.10;;;7.90;;
1935;SDS011;969;49.892;10.896;2023-12-07T13:06:11;12.60;;;7.40;;
1935;SDS011;969;49.892;10.896;2023-12-07T13:08:37;14.17;;;9.00;;
1935;SDS011;969;49.892;10.896;2023-12-07T13:11:02;14.50;;;8.20;;
1935;SDS011;969;49.892;10.896;2023-12-07T13:13:28;12.83;;;7.50;;
1935;SDS011;969;49.892;10.896;2023-12-07T13:15:54;12.20;;;7.77;;
1935;SDS011;969;49.892;10.896;2023-12-07T13:18:20;15.27;;;8.83;;
1935;SDS011;969;49.892;10.896;2023-12-07T13:20:45;14.97;;;8.00;;
1935;SDS011;969;49.892;10.896;2023-12-07T13:23:11;15.77;;;8.97;;
1935;SDS011;969;49.892;10.896;2023-12-07T13:25:37;16.00;;;8.30;;
1935;SDS011;969;49.892;10.896;2023-12-07T13:28:02;18.10;;;10.27;;
1935;SDS011;969;49.892;10.896;2023-12-07T13:30:29;12.77;;;8.57;;
1935;SDS011;969;49.892;10.896;2023-12-07T13:32:58;16.50;;;10.70;;
1935;SDS011;969;49.892;10.896;2023-12-07T13:35:24;16.93;;;9.97;;
1935;SDS011;969;49.892;10.896;2023-12-07T13:37:50;16.47;;;9.80;;
1935;SDS011;969;49.892;10.896;2023-12-07T13:40:15;19.43;;;9.83;;
1935;SDS011;969;49.892;10.896;2023-12-07T13:42:42;17.43;;;10.63;;
1935;SDS011;969;49.892;10.896;2023-12-07T13:45:08;15.67;;;10.07;;
1935;SDS011;969;49.892;10.896;2023-12-07T13:47:33;14.57;;;10.07;;
1935;SDS011;969;49.892;10.896;2023-12-07T13:50:01;19.03;;;11.00;;
1935;SDS011;969;49.892;10.896;2023-12-07T13:52:28;17.87;;;9.97;;
1935;SDS011;969;49.892;10.896;2023-12-07T13:54:54;19.13;;;11.80;;
1935;SDS011;969;49.892;10.896;2023-12-07T13:57:22;15.73;;;11.00;;
1935;SDS011;969;49.892;10.896;2023-12-07T13:59:51;19.53;;;11.23;;
1935;SDS011;969;49.892;10.896;2023-12-07T14:02:18;19.13;;;11.07;;
1935;SDS011;969;49.892;10.896;2023-12-07T14:04:44;18.23;;;10.40;;
1935;SDS011;969;49.892;10.896;2023-12-07T14:07:11;19.67;;;13.37;;
1935;SDS011;969;49.892;10.896;2023-12-07T14:09:39;20.03;;;13.20;;
1935;SDS011;969;49.892;10.896;2023-12-07T14:12:07;21.87;;;13.20;;
1935;SDS011;969;49.892;10.896;2023-12-07T14:14:34;24.67;;;13.37;;
1935;SDS011;969;49.892;10.896;2023-12-07T14:16:59;18.80;;;11.60;;
1935;SDS011;969;49.892;10.896;2023-12-07T14:19:25;16.77;;;11.00;;
1935;SDS011;969;49.892;10.896;2023-12-07T14:21:51;17.83;;;11.10;;
1935;SDS011;969;49.892;10.896;2023-12-07T14:24:16;14.67;;;10.10;;
1935;SDS011;969;49.892;10.896;2023-12-07T14:26:43;21.70;;;13.17;;
1935;SDS011;969;49.892;10.896;2023-12-07T14:29:09;20.47;;;13.30;;
1935;SDS011;969;49.892;10.896;2023-12-07T14:31:39;20.07;;;13.60;;
1935;SDS011;969;49.892;10.896;2023-12-07T14:34:05;19.13;;;11.73;;
1935;SDS011;969;49.892;10.896;2023-12-07T14:36:31;18.50;;;13.00;;
1935;SDS011;969;49.892;10.896;2023-12-07T14:38:56;21.30;;;13.40;;
1935;SDS011;969;49.892;10.896;2023-12-07T14:41:22;24.17;;;13.20;;
1935;SDS011;969;49.892;10.896;2023-12-07T14:43:48;26.67;;;14.90;;
1935;SDS011;969;49.892;10.896;2023-12-07T14:46:14;18.90;;;13.10;;
1935;SDS011;969;49.892;10.896;2023-12-07T14:48:40;20.73;;;11.90;;
1935;SDS011;969;49.892;10.896;2023-12-07T14:51:05;21.27;;;12.33;;
1935;SDS011;969;49.892;10.896;2023-12-07T14:53:32;19.27;;;13.13;;
1935;SDS011;969;49.892;10.896;2023-12-07T14:55:58;19.27;;;11.90;;
1935;SDS011;969;49.892;10.896;2023-12-07T14:58:24;19.40;;;13.40;;
1935;SDS011;969;49.892;10.896;2023-12-07T15:00:50;21.70;;;12.40;;
1935;SDS011;969;49.892;10.896;2023-12-07T15:03:16;19.27;;;11.60;;
1935;SDS011;969;49.892;10.896;2023-12-07T15:05:43;20.07;;;13.20;;
1935;SDS011;969;49.892;10.896;2023-12-07T15:08:09;21.73;;;13.03;;
1935;SDS011;969;49.892;10.896;2023-12-07T15:10:36;24.17;;;12.10;;
1935;SDS011;969;49.892;10.896;2023-12-07T15:13:02;20.07;;;12.67;;
1935;SDS011;969;49.892;10.896;2023-12-07T15:15:28;25.63;;;12.40;;